sensor_id;sensor_type;location;lat;lon;timestamp;temperature;humidity
23597;DHT22;40226;50.874;4.394;2023-09-19T00:00:16;15.70;99.90
23597;DHT22;40226;50.874;4.394;2023-09-19T00:02:54;15.70;99.90
23597;DHT22;40226;50.874;4.394;2023-09-19T00:05:23;15.80;99.90
23597;DHT22;40226;50.874;4.394;2023-09-19T00:07:50;15.80;99.90
23597;DHT22;40226;50.874;4.394;2023-09-19T00:10:22;15.70;99.90
23597;DHT22;40226;50.874;4.394;2023-09-19T00:12:53;15.70;99.90
23597;DHT22;40226;50.874;4.394;2023-09-19T00:15:22;15.80;99.90
23597;DHT22;40226;50.874;4.394;2023-09-19T00:17:48;15.70;99.90
23597;DHT22;40226;50.874;4.394;2023-09-19T00:20:14;15.70;99.90
23597;DHT22;40226;50.874;4.394;2023-09-19T00:22:44;15.70;99.90
23597;DHT22;40226;50.874;4.394;2023-09-19T00:25:11;15.70;99.90
23597;DHT22;40226;50.874;4.394;2023-09-19T00:27:41;15.80;99.90
23597;DHT22;40226;50.874;4.394;2023-09-19T00:30:11;15.70;99.90
23597;DHT22;40226;50.874;4.394;2023-09-19T00:32:46;15.70;99.90
23597;DHT22;40226;50.874;4.394;2023-09-19T00:35:15;15.60;99.90
23597;DHT22;40226;50.874;4.394;2023-09-19T00:37:41;15.60;99.90
23597;DHT22;40226;50.874;4.394;2023-09-19T00:40:08;15.60;99.90
23597;DHT22;40226;50.874;4.394;2023-09-19T00:42:57;15.60;99.90
23597;DHT22;40226;50.874;4.394;2023-09-19T00:45:25;15.60;99.90
23597;DHT22;40226;50.874;4.394;2023-09-19T00:47:51;15.50;99.90
23597;DHT22;40226;50.874;4.394;2023-09-19T00:50:19;15.50;99.90
23597;DHT22;40226;50.874;4.394;2023-09-19T00:52:50;15.50;99.90
23597;DHT22;40226;50.874;4.394;2023-09-19T00:55:18;15.60;99.90
23597;DHT22;40226;50.874;4.394;2023-09-19T00:57:45;15.60;99.90
23597;DHT22;40226;50.874;4.394;2023-09-19T01:00:11;15.50;99.90
23597;DHT22;40226;50.874;4.394;2023-09-19T01:02:42;15.50;99.90
23597;DHT22;40226;50.874;4.394;2023-09-19T01:05:09;15.50;99.90
23597;DHT22;40226;50.874;4.394;2023-09-19T01:07:36;15.50;99.90
23597;DHT22;40226;50.874;4.394;2023-09-19T01:10:04;15.50;99.90
23597;DHT22;40226;50.874;4.394;2023-09-19T01:12:48;15.40;99.90
23597;DHT22;40226;50.874;4.394;2023-09-19T01:29:13;15.40;99.90
23597;DHT22;40226;50.874;4.394;2023-09-19T01:31:45;15.50;98.40
23597;DHT22;40226;50.874;4.394;2023-09-19T01:34:10;15.50;93.30
23597;DHT22;40226;50.874;4.394;2023-09-19T01:36:37;15.40;99.90
23597;DHT22;40226;50.874;4.394;2023-09-19T01:39:06;15.40;99.90
23597;DHT22;40226;50.874;4.394;2023-09-19T01:41:41;15.40;99.50
23597;DHT22;40226;50.874;4.394;2023-09-19T01:44:17;15.40;99.90
23597;DHT22;40226;50.874;4.394;2023-09-19T01:46:45;15.50;98.00
23597;DHT22;40226;50.874;4.394;2023-09-19T01:49:22;15.50;92.00
23597;DHT22;40226;50.874;4.394;2023-09-19T01:52:11;15.50;84.70
23597;DHT22;40226;50.874;4.394;2023-09-19T01:54:52;15.40;86.50
23597;DHT22;40226;50.874;4.394;2023-09-19T01:57:34;15.50;78.20
23597;DHT22;40226;50.874;4.394;2023-09-19T02:00:06;15.50;74.70
23597;DHT22;40226;50.874;4.394;2023-09-19T02:02:40;15.50;64.80
23597;DHT22;40226;50.874;4.394;2023-09-19T02:05:07;15.40;72.90
23597;DHT22;40226;50.874;4.394;2023-09-19T02:07:33;15.40;61.60
23597;DHT22;40226;50.874;4.394;2023-09-19T02:10:01;15.30;69.80
23597;DHT22;40226;50.874;4.394;2023-09-19T02:12:28;15.40;65.70
23597;DHT22;40226;50.874;4.394;2023-09-19T02:14:56;15.40;56.30
23597;DHT22;40226;50.874;4.394;2023-09-19T02:17:22;15.40;36.80
23597;DHT22;40226;50.874;4.394;2023-09-19T02:19:54;15.30;39.00
23597;DHT22;40226;50.874;4.394;2023-09-19T02:22:21;15.40;40.80
23597;DHT22;40226;50.874;4.394;2023-09-19T02:24:46;15.40;31.60
23597;DHT22;40226;50.874;4.394;2023-09-19T02:27:13;15.40;18.70
23597;DHT22;40226;50.874;4.394;2023-09-19T02:29:41;15.40;15.20
23597;DHT22;40226;50.874;4.394;2023-09-19T02:32:07;15.40;13.30
23597;DHT22;40226;50.874;4.394;2023-09-19T02:34:34;15.50;7.10
23597;DHT22;40226;50.874;4.394;2023-09-19T02:37:04;15.50;1.00
23597;DHT22;40226;50.874;4.394;2023-09-19T02:39:34;15.50;5.70
23597;DHT22;40226;50.874;4.394;2023-09-19T02:42:00;15.50;6.00
23597;DHT22;40226;50.874;4.394;2023-09-19T02:44:25;15.50;9.60
23597;DHT22;40226;50.874;4.394;2023-09-19T02:46:51;15.50;9.10
23597;DHT22;40226;50.874;4.394;2023-09-19T02:49:17;15.50;9.10
23597;DHT22;40226;50.874;4.394;2023-09-19T02:51:43;15.50;7.30
23597;DHT22;40226;50.874;4.394;2023-09-19T02:54:10;15.60;14.40
23597;DHT22;40226;50.874;4.394;2023-09-19T02:56:36;15.50;18.80
23597;DHT22;40226;50.874;4.394;2023-09-19T02:59:02;15.40;23.50
23597;DHT22;40226;50.874;4.394;2023-09-19T03:01:28;15.40;31.20
23597;DHT22;40226;50.874;4.394;2023-09-19T03:03:54;15.40;29.90
23597;DHT22;40226;50.874;4.394;2023-09-19T03:06:20;15.40;32.00
23597;DHT22;40226;50.874;4.394;2023-09-19T03:08:47;15.30;39.30
23597;DHT22;40226;50.874;4.394;2023-09-19T03:11:14;15.30;39.80
23597;DHT22;40226;50.874;4.394;2023-09-19T03:13:41;15.30;39.60
23597;DHT22;40226;50.874;4.394;2023-09-19T03:16:08;15.30;49.20
23597;DHT22;40226;50.874;4.394;2023-09-19T03:18:34;15.30;42.60
23597;DHT22;40226;50.874;4.394;2023-09-19T03:21:00;15.30;46.10
23597;DHT22;40226;50.874;4.394;2023-09-19T03:23:27;15.30;51.40
23597;DHT22;40226;50.874;4.394;2023-09-19T03:25:54;15.40;49.10
23597;DHT22;40226;50.874;4.394;2023-09-19T03:28:20;15.30;77.40
23597;DHT22;40226;50.874;4.394;2023-09-19T03:30:59;15.20;96.20
23597;DHT22;40226;50.874;4.394;2023-09-19T03:33:25;15.00;99.90
23597;DHT22;40226;50.874;4.394;2023-09-19T03:35:53;14.70;99.90
23597;DHT22;40226;50.874;4.394;2023-09-19T03:38:19;14.70;99.90
23597;DHT22;40226;50.874;4.394;2023-09-19T03:40:45;14.70;99.90
23597;DHT22;40226;50.874;4.394;2023-09-19T03:43:10;14.70;99.90
23597;DHT22;40226;50.874;4.394;2023-09-19T03:45:36;14.70;99.90
23597;DHT22;40226;50.874;4.394;2023-09-19T03:48:10;14.70;99.90
23597;DHT22;40226;50.874;4.394;2023-09-19T03:50:36;14.70;99.90
23597;DHT22;40226;50.874;4.394;2023-09-19T03:53:02;14.70;99.90
23597;DHT22;40226;50.874;4.394;2023-09-19T03:55:28;14.70;99.90
23597;DHT22;40226;50.874;4.394;2023-09-19T03:57:55;14.70;99.90
23597;DHT22;40226;50.874;4.394;2023-09-19T04:00:20;14.80;99.90
23597;DHT22;40226;50.874;4.394;2023-09-19T04:02:49;14.90;99.90
23597;DHT22;40226;50.874;4.394;2023-09-19T04:05:14;14.90;99.90
23597;DHT22;40226;50.874;4.394;2023-09-19T04:07:40;14.90;99.90
23597;DHT22;40226;50.874;4.394;2023-09-19T04:10:06;14.80;99.90
23597;DHT22;40226;50.874;4.394;2023-09-19T04:12:34;14.90;99.90
23597;DHT22;40226;50.874;4.394;2023-09-19T04:15:00;14.80;99.90
23597;DHT22;40226;50.874;4.394;2023-09-19T04:17:25;14.90;99.90
23597;DHT22;40226;50.874;4.394;2023-09-19T04:19:51;14.80;99.90
23597;DHT22;40226;50.874;4.394;2023-09-19T04:22:17;14.80;99.90
23597;DHT22;40226;50.874;4.394;2023-09-19T04:24:42;14.80;99.90
23597;DHT22;40226;50.874;4.394;2023-09-19T04:27:08;14.90;99.90
23597;DHT22;40226;50.874;4.394;2023-09-19T04:29:35;14.90;99.90
23597;DHT22;40226;50.874;4.394;2023-09-19T04:32:01;14.80;99.90
23597;DHT22;40226;50.874;4.394;2023-09-19T04:34:29;14.80;99.90
23597;DHT22;40226;50.874;4.394;2023-09-19T04:36:56;14.90;99.90
23597;DHT22;40226;50.874;4.394;2023-09-19T04:39:23;14.80;99.90
23597;DHT22;40226;50.874;4.394;2023-09-19T04:41:51;14.80;99.90
23597;DHT22;40226;50.874;4.394;2023-09-19T04:44:17;14.80;99.90
23597;DHT22;40226;50.874;4.394;2023-09-19T04:46:43;14.80;99.90
23597;DHT22;40226;50.874;4.394;2023-09-19T04:49:09;14.80;99.90
23597;DHT22;40226;50.874;4.394;2023-09-19T04:51:35;14.80;99.90
23597;DHT22;40226;50.874;4.394;2023-09-19T04:54:01;14.70;99.90
23597;DHT22;40226;50.874;4.394;2023-09-19T04:56:28;14.70;99.90
23597;DHT22;40226;50.874;4.394;2023-09-19T04:59:00;14.70;99.90
23597;DHT22;40226;50.874;4.394;2023-09-19T05:01:26;14.70;99.90
23597;DHT22;40226;50.874;4.394;2023-09-19T05:03:52;14.70;99.90
23597;DHT22;40226;50.874;4.394;2023-09-19T05:06:21;14.70;99.90
23597;DHT22;40226;50.874;4.394;2023-09-19T05:08:47;14.70;99.90
23597;DHT22;40226;50.874;4.394;2023-09-19T05:11:17;14.70;99.90
23597;DHT22;40226;50.874;4.394;2023-09-19T05:13:44;14.70;99.90
23597;DHT22;40226;50.874;4.394;2023-09-19T05:16:09;14.70;99.90
23597;DHT22;40226;50.874;4.394;2023-09-19T05:18:35;14.70;99.90
23597;DHT22;40226;50.874;4.394;2023-09-19T05:21:04;14.70;99.90
23597;DHT22;40226;50.874;4.394;2023-09-19T05:23:30;14.70;99.90
23597;DHT22;40226;50.874;4.394;2023-09-19T05:25:56;14.70;99.90
23597;DHT22;40226;50.874;4.394;2023-09-19T05:28:25;14.80;99.90
23597;DHT22;40226;50.874;4.394;2023-09-19T05:30:55;14.70;99.90
23597;DHT22;40226;50.874;4.394;2023-09-19T05:33:21;14.60;99.90
23597;DHT22;40226;50.874;4.394;2023-09-19T05:35:48;14.60;99.90
23597;DHT22;40226;50.874;4.394;2023-09-19T05:38:14;14.60;99.90
23597;DHT22;40226;50.874;4.394;2023-09-19T05:40:44;14.70;99.90
23597;DHT22;40226;50.874;4.394;2023-09-19T05:43:10;14.70;99.90
23597;DHT22;40226;50.874;4.394;2023-09-19T05:45:36;14.80;99.90
23597;DHT22;40226;50.874;4.394;2023-09-19T05:48:11;14.80;99.90
23597;DHT22;40226;50.874;4.394;2023-09-19T05:50:38;14.80;99.90
23597;DHT22;40226;50.874;4.394;2023-09-19T05:53:04;14.80;99.90
23597;DHT22;40226;50.874;4.394;2023-09-19T05:55:30;14.80;99.90
23597;DHT22;40226;50.874;4.394;2023-09-19T05:57:56;14.80;99.90
23597;DHT22;40226;50.874;4.394;2023-09-19T06:00:23;14.80;99.90
23597;DHT22;40226;50.874;4.394;2023-09-19T06:02:53;14.80;99.90
23597;DHT22;40226;50.874;4.394;2023-09-19T06:05:19;14.90;99.90
23597;DHT22;40226;50.874;4.394;2023-09-19T06:07:45;14.80;99.90
23597;DHT22;40226;50.874;4.394;2023-09-19T06:10:12;14.80;99.90
23597;DHT22;40226;50.874;4.394;2023-09-19T06:12:44;14.80;99.90
23597;DHT22;40226;50.874;4.394;2023-09-19T06:15:11;14.90;99.90
23597;DHT22;40226;50.874;4.394;2023-09-19T06:17:49;14.80;99.90
23597;DHT22;40226;50.874;4.394;2023-09-19T06:20:16;14.80;99.90
23597;DHT22;40226;50.874;4.394;2023-09-19T06:22:42;14.90;99.90
23597;DHT22;40226;50.874;4.394;2023-09-19T06:25:09;14.90;99.90
23597;DHT22;40226;50.874;4.394;2023-09-19T06:27:38;15.00;99.90
23597;DHT22;40226;50.874;4.394;2023-09-19T06:30:04;15.00;99.90
23597;DHT22;40226;50.874;4.394;2023-09-19T06:32:32;15.10;99.90
23597;DHT22;40226;50.874;4.394;2023-09-19T06:34:57;15.10;99.90
23597;DHT22;40226;50.874;4.394;2023-09-19T06:37:27;15.10;99.90
23597;DHT22;40226;50.874;4.394;2023-09-19T06:39:53;15.10;99.90
23597;DHT22;40226;50.874;4.394;2023-09-19T06:42:19;15.10;99.90
23597;DHT22;40226;50.874;4.394;2023-09-19T06:44:44;15.00;99.90
23597;DHT22;40226;50.874;4.394;2023-09-19T06:47:10;15.00;99.90
23597;DHT22;40226;50.874;4.394;2023-09-19T06:49:36;15.00;99.90
23597;DHT22;40226;50.874;4.394;2023-09-19T06:52:02;15.10;99.90
23597;DHT22;40226;50.874;4.394;2023-09-19T06:54:28;15.00;99.90
23597;DHT22;40226;50.874;4.394;2023-09-19T06:56:59;15.00;99.90
23597;DHT22;40226;50.874;4.394;2023-09-19T06:59:25;14.90;99.90
23597;DHT22;40226;50.874;4.394;2023-09-19T07:01:50;15.00;99.90
23597;DHT22;40226;50.874;4.394;2023-09-19T07:04:16;15.00;99.90
23597;DHT22;40226;50.874;4.394;2023-09-19T07:06:49;15.00;99.90
23597;DHT22;40226;50.874;4.394;2023-09-19T07:09:15;15.00;99.90
23597;DHT22;40226;50.874;4.394;2023-09-19T07:11:41;15.10;99.90
23597;DHT22;40226;50.874;4.394;2023-09-19T07:14:07;15.10;99.90
23597;DHT22;40226;50.874;4.394;2023-09-19T07:16:37;15.10;99.90
23597;DHT22;40226;50.874;4.394;2023-09-19T07:19:04;15.10;99.90
23597;DHT22;40226;50.874;4.394;2023-09-19T07:21:30;15.20;99.90
23597;DHT22;40226;50.874;4.394;2023-09-19T07:23:56;15.40;99.90
23597;DHT22;40226;50.874;4.394;2023-09-19T07:26:21;15.40;99.90
23597;DHT22;40226;50.874;4.394;2023-09-19T07:28:47;15.40;99.90
23597;DHT22;40226;50.874;4.394;2023-09-19T07:31:13;15.40;99.90
23597;DHT22;40226;50.874;4.394;2023-09-19T07:33:39;15.40;99.90
23597;DHT22;40226;50.874;4.394;2023-09-19T07:36:05;15.50;99.90
23597;DHT22;40226;50.874;4.394;2023-09-19T07:38:31;15.60;99.90
23597;DHT22;40226;50.874;4.394;2023-09-19T07:41:01;15.60;99.90
23597;DHT22;40226;50.874;4.394;2023-09-19T07:43:27;15.70;97.80
23597;DHT22;40226;50.874;4.394;2023-09-19T07:45:53;15.70;99.90
23597;DHT22;40226;50.874;4.394;2023-09-19T07:48:19;15.80;99.00
23597;DHT22;40226;50.874;4.394;2023-09-19T07:50:44;15.80;96.50
23597;DHT22;40226;50.874;4.394;2023-09-19T07:53:11;15.80;95.20
23597;DHT22;40226;50.874;4.394;2023-09-19T07:55:39;15.90;91.50
23597;DHT22;40226;50.874;4.394;2023-09-19T07:58:07;15.90;87.20
23597;DHT22;40226;50.874;4.394;2023-09-19T08:00:33;15.90;91.00
23597;DHT22;40226;50.874;4.394;2023-09-19T08:03:00;15.90;93.70
23597;DHT22;40226;50.874;4.394;2023-09-19T08:05:26;16.00;92.20
23597;DHT22;40226;50.874;4.394;2023-09-19T08:07:53;16.20;84.60
23597;DHT22;40226;50.874;4.394;2023-09-19T08:10:19;16.20;75.10
23597;DHT22;40226;50.874;4.394;2023-09-19T08:12:47;16.30;64.00
23597;DHT22;40226;50.874;4.394;2023-09-19T08:15:19;16.40;53.30
23597;DHT22;40226;50.874;4.394;2023-09-19T08:17:45;16.40;57.20
23597;DHT22;40226;50.874;4.394;2023-09-19T08:20:12;16.40;46.20
23597;DHT22;40226;50.874;4.394;2023-09-19T08:22:53;16.30;55.40
23597;DHT22;40226;50.874;4.394;2023-09-19T08:25:22;16.50;45.70
23597;DHT22;40226;50.874;4.394;2023-09-19T08:27:49;16.40;42.80
23597;DHT22;40226;50.874;4.394;2023-09-19T08:30:16;16.40;41.10
23597;DHT22;40226;50.874;4.394;2023-09-19T08:32:42;16.40;42.10
23597;DHT22;40226;50.874;4.394;2023-09-19T08:35:11;16.40;40.40
23597;DHT22;40226;50.874;4.394;2023-09-19T08:37:37;16.60;29.30
23597;DHT22;40226;50.874;4.394;2023-09-19T08:40:03;16.70;18.00
23597;DHT22;40226;50.874;4.394;2023-09-19T08:42:29;16.70;24.50
23597;DHT22;40226;50.874;4.394;2023-09-19T08:44:58;16.80;15.70
23597;DHT22;40226;50.874;4.394;2023-09-19T08:47:37;16.90;1.00
23597;DHT22;40226;50.874;4.394;2023-09-19T08:50:13;16.80;1.00
23597;DHT22;40226;50.874;4.394;2023-09-19T08:52:43;16.80;1.00
23597;DHT22;40226;50.874;4.394;2023-09-19T08:55:13;16.90;1.00
23597;DHT22;40226;50.874;4.394;2023-09-19T08:57:46;17.00;1.00
23597;DHT22;40226;50.874;4.394;2023-09-19T09:00:15;17.10;99.90
23597;DHT22;40226;50.874;4.394;2023-09-19T09:02:43;17.30;99.90
23597;DHT22;40226;50.874;4.394;2023-09-19T09:05:11;17.50;99.90
23597;DHT22;40226;50.874;4.394;2023-09-19T09:07:38;17.50;99.90
23597;DHT22;40226;50.874;4.394;2023-09-19T09:10:05;17.50;99.90
23597;DHT22;40226;50.874;4.394;2023-09-19T09:12:31;17.60;99.90
23597;DHT22;40226;50.874;4.394;2023-09-19T09:14:57;17.70;99.90
23597;DHT22;40226;50.874;4.394;2023-09-19T09:17:23;17.80;99.90
23597;DHT22;40226;50.874;4.394;2023-09-19T09:19:52;17.70;99.90
23597;DHT22;40226;50.874;4.394;2023-09-19T09:22:18;17.60;99.90
23597;DHT22;40226;50.874;4.394;2023-09-19T09:24:57;17.80;99.90
23597;DHT22;40226;50.874;4.394;2023-09-19T09:27:23;17.80;99.90
23597;DHT22;40226;50.874;4.394;2023-09-19T09:29:50;18.00;99.90
23597;DHT22;40226;50.874;4.394;2023-09-19T09:32:37;18.00;99.90
23597;DHT22;40226;50.874;4.394;2023-09-19T09:35:07;18.00;99.90
23597;DHT22;40226;50.874;4.394;2023-09-19T09:37:36;18.00;99.90
23597;DHT22;40226;50.874;4.394;2023-09-19T09:40:04;17.80;99.90
23597;DHT22;40226;50.874;4.394;2023-09-19T09:42:56;17.80;99.90
23597;DHT22;40226;50.874;4.394;2023-09-19T09:45:24;18.00;99.90
23597;DHT22;40226;50.874;4.394;2023-09-19T09:48:00;17.90;99.90
23597;DHT22;40226;50.874;4.394;2023-09-19T09:50:35;18.00;99.90
23597;DHT22;40226;50.874;4.394;2023-09-19T09:53:29;18.10;99.90
23597;DHT22;40226;50.874;4.394;2023-09-19T09:56:08;18.20;99.90
23597;DHT22;40226;50.874;4.394;2023-09-19T09:58:51;18.10;99.90
23597;DHT22;40226;50.874;4.394;2023-09-19T10:01:21;18.00;99.90
23597;DHT22;40226;50.874;4.394;2023-09-19T10:03:57;17.90;99.90
23597;DHT22;40226;50.874;4.394;2023-09-19T10:06:23;18.00;99.90
23597;DHT22;40226;50.874;4.394;2023-09-19T10:09:06;18.10;99.90
23597;DHT22;40226;50.874;4.394;2023-09-19T10:12:06;18.00;99.90
23597;DHT22;40226;50.874;4.394;2023-09-19T10:14:37;17.90;99.90
23597;DHT22;40226;50.874;4.394;2023-09-19T10:17:05;17.90;99.90
23597;DHT22;40226;50.874;4.394;2023-09-19T10:19:53;18.10;99.90
23597;DHT22;40226;50.874;4.394;2023-09-19T10:22:23;18.20;99.90
23597;DHT22;40226;50.874;4.394;2023-09-19T10:24:50;18.30;99.90
23597;DHT22;40226;50.874;4.394;2023-09-19T10:27:19;18.30;99.90
23597;DHT22;40226;50.874;4.394;2023-09-19T10:29:49;18.30;99.90
23597;DHT22;40226;50.874;4.394;2023-09-19T10:32:23;18.40;99.90
23597;DHT22;40226;50.874;4.394;2023-09-19T10:34:51;18.50;99.90
23597;DHT22;40226;50.874;4.394;2023-09-19T10:37:22;18.60;99.90
23597;DHT22;40226;50.874;4.394;2023-09-19T10:39:51;19.00;99.90
23597;DHT22;40226;50.874;4.394;2023-09-19T10:42:20;19.40;99.90
23597;DHT22;40226;50.874;4.394;2023-09-19T10:44:47;19.60;99.90
23597;DHT22;40226;50.874;4.394;2023-09-19T10:47:15;19.40;99.90
23597;DHT22;40226;50.874;4.394;2023-09-19T10:49:45;19.40;99.90
23597;DHT22;40226;50.874;4.394;2023-09-19T10:52:17;19.40;99.90
23597;DHT22;40226;50.874;4.394;2023-09-19T10:54:49;19.70;99.90
23597;DHT22;40226;50.874;4.394;2023-09-19T10:57:24;19.80;99.90
23597;DHT22;40226;50.874;4.394;2023-09-19T11:00:09;19.70;99.90
23597;DHT22;40226;50.874;4.394;2023-09-19T11:05:41;19.90;99.90
23597;DHT22;40226;50.874;4.394;2023-09-19T11:08:08;20.20;99.90
23597;DHT22;40226;50.874;4.394;2023-09-19T11:10:50;20.60;99.90
23597;DHT22;40226;50.874;4.394;2023-09-19T11:13:31;20.40;99.90
23597;DHT22;40226;50.874;4.394;2023-09-19T11:26:45;20.90;99.90
23597;DHT22;40226;50.874;4.394;2023-09-19T11:29:31;20.90;99.90
23597;DHT22;40226;50.874;4.394;2023-09-19T11:31:57;21.10;99.90
23597;DHT22;40226;50.874;4.394;2023-09-19T11:40:10;20.60;99.90
23597;DHT22;40226;50.874;4.394;2023-09-19T11:42:46;20.30;99.90
23597;DHT22;40226;50.874;4.394;2023-09-19T11:48:23;20.50;99.90
23597;DHT22;40226;50.874;4.394;2023-09-19T11:50:53;20.10;99.90
23597;DHT22;40226;50.874;4.394;2023-09-19T11:53:19;20.10;99.90
23597;DHT22;40226;50.874;4.394;2023-09-19T11:55:45;20.30;99.90
23597;DHT22;40226;50.874;4.394;2023-09-19T11:58:13;20.40;99.90
23597;DHT22;40226;50.874;4.394;2023-09-19T12:00:40;20.40;99.90
23597;DHT22;40226;50.874;4.394;2023-09-19T12:03:11;20.50;99.90
23597;DHT22;40226;50.874;4.394;2023-09-19T12:05:37;20.70;99.90
23597;DHT22;40226;50.874;4.394;2023-09-19T12:08:07;20.60;99.90
23597;DHT22;40226;50.874;4.394;2023-09-19T12:10:47;20.40;99.90
23597;DHT22;40226;50.874;4.394;2023-09-19T12:13:19;20.30;99.90
23597;DHT22;40226;50.874;4.394;2023-09-19T12:15:46;20.10;99.90
23597;DHT22;40226;50.874;4.394;2023-09-19T12:18:31;20.30;99.90
23597;DHT22;40226;50.874;4.394;2023-09-19T12:20:59;20.30;99.90
23597;DHT22;40226;50.874;4.394;2023-09-19T12:23:25;20.70;99.90
23597;DHT22;40226;50.874;4.394;2023-09-19T12:25:52;21.00;99.90
23597;DHT22;40226;50.874;4.394;2023-09-19T12:28:20;21.10;99.90
23597;DHT22;40226;50.874;4.394;2023-09-19T12:30:47;21.10;99.90
23597;DHT22;40226;50.874;4.394;2023-09-19T12:33:20;21.50;99.90
23597;DHT22;40226;50.874;4.394;2023-09-19T12:35:47;21.50;99.90
23597;DHT22;40226;50.874;4.394;2023-09-19T12:38:26;21.10;99.90
23597;DHT22;40226;50.874;4.394;2023-09-19T12:40:59;20.70;99.90
23597;DHT22;40226;50.874;4.394;2023-09-19T12:43:26;20.40;99.90
23597;DHT22;40226;50.874;4.394;2023-09-19T12:45:52;20.40;99.90
23597;DHT22;40226;50.874;4.394;2023-09-19T12:48:23;20.10;99.90
23597;DHT22;40226;50.874;4.394;2023-09-19T12:53:42;20.50;99.90
23597;DHT22;40226;50.874;4.394;2023-09-19T12:56:10;20.60;99.90
23597;DHT22;40226;50.874;4.394;2023-09-19T12:58:57;20.60;99.90
23597;DHT22;40226;50.874;4.394;2023-09-19T13:01:26;20.60;99.90
23597;DHT22;40226;50.874;4.394;2023-09-19T13:06:45;20.50;99.90
23597;DHT22;40226;50.874;4.394;2023-09-19T13:09:12;20.70;99.90
23597;DHT22;40226;50.874;4.394;2023-09-19T13:11:40;20.70;99.90
23597;DHT22;40226;50.874;4.394;2023-09-19T13:14:26;20.70;99.90
23597;DHT22;40226;50.874;4.394;2023-09-19T13:17:01;21.00;99.90
23597;DHT22;40226;50.874;4.394;2023-09-19T13:19:45;21.20;99.90
23597;DHT22;40226;50.874;4.394;2023-09-19T13:22:37;20.90;99.90
23597;DHT22;40226;50.874;4.394;2023-09-19T13:25:09;20.70;99.90
23597;DHT22;40226;50.874;4.394;2023-09-19T13:27:43;20.60;99.90
23597;DHT22;40226;50.874;4.394;2023-09-19T13:30:10;20.60;99.90
23597;DHT22;40226;50.874;4.394;2023-09-19T13:32:36;20.80;99.90
23597;DHT22;40226;50.874;4.394;2023-09-19T13:35:03;21.00;99.90
23597;DHT22;40226;50.874;4.394;2023-09-19T13:37:33;20.90;99.90
23597;DHT22;40226;50.874;4.394;2023-09-19T13:40:00;21.00;99.90
23597;DHT22;40226;50.874;4.394;2023-09-19T13:42:26;21.20;99.90
23597;DHT22;40226;50.874;4.394;2023-09-19T13:44:55;21.20;99.90
23597;DHT22;40226;50.874;4.394;2023-09-19T13:47:21;20.80;99.90
23597;DHT22;40226;50.874;4.394;2023-09-19T13:49:50;20.80;99.90
23597;DHT22;40226;50.874;4.394;2023-09-19T13:52:18;20.60;99.90
23597;DHT22;40226;50.874;4.394;2023-09-19T13:54:44;20.50;99.90
23597;DHT22;40226;50.874;4.394;2023-09-19T13:57:10;20.60;99.90
23597;DHT22;40226;50.874;4.394;2023-09-19T13:59:35;20.60;99.90
23597;DHT22;40226;50.874;4.394;2023-09-19T14:02:02;20.60;99.90
23597;DHT22;40226;50.874;4.394;2023-09-19T14:04:31;20.40;99.90
23597;DHT22;40226;50.874;4.394;2023-09-19T14:06:57;20.40;99.90
23597;DHT22;40226;50.874;4.394;2023-09-19T14:09:23;20.20;99.90
23597;DHT22;40226;50.874;4.394;2023-09-19T14:11:50;20.10;99.90
23597;DHT22;40226;50.874;4.394;2023-09-19T14:14:18;20.10;99.90
23597;DHT22;40226;50.874;4.394;2023-09-19T14:16:44;20.20;99.90
23597;DHT22;40226;50.874;4.394;2023-09-19T14:19:11;20.30;99.90
23597;DHT22;40226;50.874;4.394;2023-09-19T14:21:36;20.50;99.90
23597;DHT22;40226;50.874;4.394;2023-09-19T14:24:03;21.30;99.90
23597;DHT22;40226;50.874;4.394;2023-09-19T14:26:29;21.30;99.90
23597;DHT22;40226;50.874;4.394;2023-09-19T14:28:54;21.20;99.90
23597;DHT22;40226;50.874;4.394;2023-09-19T14:31:20;21.40;99.90
23597;DHT22;40226;50.874;4.394;2023-09-19T14:33:53;21.50;99.90
23597;DHT22;40226;50.874;4.394;2023-09-19T14:36:19;21.50;99.90
23597;DHT22;40226;50.874;4.394;2023-09-19T14:38:45;21.40;99.90
23597;DHT22;40226;50.874;4.394;2023-09-19T14:41:11;21.50;99.90
23597;DHT22;40226;50.874;4.394;2023-09-19T14:43:36;21.80;99.90
23597;DHT22;40226;50.874;4.394;2023-09-19T14:46:03;22.20;99.90
23597;DHT22;40226;50.874;4.394;2023-09-19T14:48:29;22.40;99.90
23597;DHT22;40226;50.874;4.394;2023-09-19T14:50:55;21.90;99.90
23597;DHT22;40226;50.874;4.394;2023-09-19T14:53:21;21.50;99.90
23597;DHT22;40226;50.874;4.394;2023-09-19T14:55:47;20.90;99.90
23597;DHT22;40226;50.874;4.394;2023-09-19T14:58:17;20.80;99.90
23597;DHT22;40226;50.874;4.394;2023-09-19T15:00:43;20.70;99.90
23597;DHT22;40226;50.874;4.394;2023-09-19T15:03:11;20.40;99.90
23597;DHT22;40226;50.874;4.394;2023-09-19T15:05:36;20.20;99.90
23597;DHT22;40226;50.874;4.394;2023-09-19T15:08:02;20.20;99.90
23597;DHT22;40226;50.874;4.394;2023-09-19T15:10:28;20.30;99.90
23597;DHT22;40226;50.874;4.394;2023-09-19T15:12:55;20.30;99.90
23597;DHT22;40226;50.874;4.394;2023-09-19T15:15:20;20.50;99.90
23597;DHT22;40226;50.874;4.394;2023-09-19T15:17:46;20.60;99.90
23597;DHT22;40226;50.874;4.394;2023-09-19T15:20:12;20.50;99.90
23597;DHT22;40226;50.874;4.394;2023-09-19T15:22:39;20.40;99.90
23597;DHT22;40226;50.874;4.394;2023-09-19T15:25:05;20.20;99.90
23597;DHT22;40226;50.874;4.394;2023-09-19T15:27:31;20.10;99.90
23597;DHT22;40226;50.874;4.394;2023-09-19T15:29:59;20.20;99.90
23597;DHT22;40226;50.874;4.394;2023-09-19T15:32:26;20.00;99.90
23597;DHT22;40226;50.874;4.394;2023-09-19T15:34:52;20.00;99.90
23597;DHT22;40226;50.874;4.394;2023-09-19T15:37:17;20.00;99.90
23597;DHT22;40226;50.874;4.394;2023-09-19T15:39:44;19.80;99.90
23597;DHT22;40226;50.874;4.394;2023-09-19T15:42:11;19.70;99.90
23597;DHT22;40226;50.874;4.394;2023-09-19T15:44:37;19.70;99.90
23597;DHT22;40226;50.874;4.394;2023-09-19T15:47:06;19.70;99.90
23597;DHT22;40226;50.874;4.394;2023-09-19T15:49:31;19.70;99.90
23597;DHT22;40226;50.874;4.394;2023-09-19T15:51:57;19.80;99.90
23597;DHT22;40226;50.874;4.394;2023-09-19T15:54:25;19.80;99.90
23597;DHT22;40226;50.874;4.394;2023-09-19T15:56:51;19.80;99.90
23597;DHT22;40226;50.874;4.394;2023-09-19T15:59:18;19.80;99.90
23597;DHT22;40226;50.874;4.394;2023-09-19T16:01:44;19.70;99.90
23597;DHT22;40226;50.874;4.394;2023-09-19T16:04:10;19.60;99.90
23597;DHT22;40226;50.874;4.394;2023-09-19T16:06:38;19.60;99.90
23597;DHT22;40226;50.874;4.394;2023-09-19T16:09:04;19.60;99.90
23597;DHT22;40226;50.874;4.394;2023-09-19T16:11:32;19.60;99.90
23597;DHT22;40226;50.874;4.394;2023-09-19T16:13:58;19.70;99.90
23597;DHT22;40226;50.874;4.394;2023-09-19T16:16:25;19.70;99.90
23597;DHT22;40226;50.874;4.394;2023-09-19T16:18:54;19.60;99.90
23597;DHT22;40226;50.874;4.394;2023-09-19T16:21:26;19.70;99.90
23597;DHT22;40226;50.874;4.394;2023-09-19T16:23:54;19.60;99.90